Terminal Aerodrome Forecast
Issued by NWS

Home | Current Version | Previous Version | Text Only | Print | Product List | Glossary On
Versions: 1 2 3 4 5 6 7 8 9 10 11 12 13 14
000
FTUS45 KRIW 250520
TAFCPR
TAF
KCPR 250520Z 2506/2606 24007KT P6SM SKC
     FM251300 22014KT P6SM SKC
     FM251600 23018G26KT P6SM SKC
     FM260000 26012G18KT P6SM SKC
     FM260200 01014G20KT P6SM FEW030 SCT050
     FM260500 02015G25KT P6SM VCSH SCT015 OVC030=

USA.gov is the U.S. government's official web portal to all federal, state and local government web resources and services.